Terminal Aerodrome Forecast
Issued by NWS Jackson, MS

Home | Current Version | Previous Version | Text Only | Print | Product List | Glossary On
Versions: 1 2 3 4 5 6 7 8 9 10 11 12 13 14 15 16 17 18 19 20 21 22 23 24 25 26 27 28 29
000
FTUS44 KJAN 051312 AAA
TAFGWO
TAF AMD
KGWO 051312Z 0513/0612 20004KT P6SM SCT020 BKN040
     FM051600 24007KT P6SM VCTS SCT030 BKN050CB
     FM052300 19004KT P6SM FEW030 SCT150
     FM061000 18004KT 5SM BR FEW010 SCT020=

USA.gov is the U.S. government's official web portal to all federal, state and local government web resources and services.